This is the latest recevied weather packets stored in our database for station/object N5ZKK. If no packets are shown the sender has not sent any weather packets the latest 10 day(s).
| Time | Temp. | Humidity | Pressure | Rain* | Wind** | Luminosity | Snow |
|---|---|---|---|---|---|---|---|
| 1777539327 | 15.56° C | 99% | 1015.5 hPa | 0 mm | - | - | - |
| 1777538119 | 15.56° C | 99% | 1015.3 hPa | 0 mm | - | - | - |
| 1777533929 | 15.56° C | 99% | 1014.7 hPa | 0 mm | - | - | - |
| 1777532117 | 15.56° C | 99% | 1015.7 hPa | 0 mm | - | - | - |
| 1777530922 | 16.11° C | 99% | 1016.1 hPa | 0 mm | - | - | - |
| 1777527933 | 16.67° C | 96% | 1015.9 hPa | 0 mm | - | - | - |
| 1777526122 | 17.22° C | 95% | 1016.4 hPa | 0 mm | - | - | - |
| 1777521939 | 17.78° C | 94% | 1016.8 hPa | 0 mm | - | - | - |
| 1777517736 | 18.33° C | 95% | 1015.6 hPa | 0 mm | - | - | - |
| 1777517118 | 18.33° C | 95% | 1015.3 hPa | 0 mm | - | - | - |
| 1777511720 | 19.44° C | 94% | 1014.5 hPa | 0 mm | - | - | - |
| 1777509920 | 20° C | 92% | 1014.5 hPa | 0 mm | - | - | - |
| 1777508115 | 20.56° C | 90% | 1014.5 hPa | 0 mm | - | - | - |
| 1777505724 | 21.67° C | 90% | 1013.3 hPa | 0 mm | - | - | - |
| 1777496125 | 28.89° C | 74% | 1013.3 hPa | 0 mm | - | - | - |
| 1777493753 | 30° C | 73% | 1013.8 hPa | 0 mm | - | - | - |
| 1777488329 | 30° C | 79% | 1016 hPa | 0 mm | - | - | - |
| 1777485920 | 26.67° C | 88% | 1015.9 hPa | 0 mm | - | - | - |
| 1777481118 | 26.11° C | 91% | 1015.4 hPa | 0 mm | - | - | - |
| 1777474524 | 24.44° C | 97% | 1016.2 hPa | 0 mm | - | - | - |
| 1777473329 | 24.44° C | 97% | 1016.1 hPa | 0 mm | - | - | - |
| 1777467333 | 23.33° C | 99% | 1015.3 hPa | 0 mm | - | - | - |
| 1777461319 | 23.89° C | 99% | 1014.3 hPa | 0 mm | - | - | - |
| 1777460721 | 23.89° C | 99% | 1014.3 hPa | 0 mm | - | - | - |
| 1777458349 | 23.89° C | 99% | 1013.8 hPa | 0 mm | - | - | - |
* Rain latest hour (hover to see other rain measurements)
** Current wind speed in m/s (hover to see current wind gust speed)